createdAt,value
2019-01-05T00:02:27.241Z,42.87
2019-01-05T00:05:01.756Z,40.40
2019-01-05T00:07:33.618Z,39.50
2019-01-05T00:10:06.189Z,42.73
2019-01-05T00:12:40.722Z,43.37
2019-01-05T00:15:28.792Z,41.73
2019-01-05T00:18:09.611Z,43.93
2019-01-05T00:20:42.586Z,41.60
2019-01-05T00:23:34.013Z,37.67
2019-01-05T00:26:23.967Z,40.90
2019-01-05T00:29:11.897Z,40.50
2019-01-05T00:32:03.227Z,44.00
2019-01-05T00:34:51.375Z,39.17
2019-01-05T00:37:23.276Z,41.40
2019-01-05T00:40:00.306Z,37.83
2019-01-05T00:42:41.277Z,41.47
2019-01-05T00:45:31.469Z,40.50
2019-01-05T00:48:04.270Z,41.83
2019-01-05T00:50:39.172Z,44.53
2019-01-05T00:53:23.200Z,40.00
2019-01-05T00:56:11.427Z,44.17
2019-01-05T00:58:43.266Z,43.43
2019-01-05T01:01:26.971Z,45.63
2019-01-05T01:04:04.569Z,44.90
2019-01-05T01:06:52.593Z,47.17
2019-01-05T01:09:24.452Z,40.70
2019-01-05T01:11:56.649Z,44.40
2019-01-05T01:14:42.978Z,42.50
2019-01-05T01:17:15.072Z,41.77
2019-01-05T01:19:56.022Z,44.27
2019-01-05T01:22:37.690Z,45.67
2019-01-05T01:25:15.203Z,43.40
2019-01-05T01:27:50.346Z,46.83
2019-01-05T01:30:38.679Z,42.60
2019-01-05T01:33:14.573Z,39.87
2019-01-05T01:35:49.130Z,44.60
2019-01-05T01:38:38.680Z,42.00
2019-01-05T01:41:13.573Z,46.63
2019-01-05T01:43:47.982Z,44.10
2019-01-05T01:46:29.426Z,44.17
2019-01-05T01:49:04.343Z,45.63
2019-01-05T01:51:36.345Z,39.47
2019-01-05T01:54:24.533Z,43.73
2019-01-05T01:56:57.644Z,42.00
2019-01-05T01:59:32.574Z,44.57
2019-01-05T02:02:22.866Z,41.67
2019-01-05T02:04:58.518Z,39.73
2019-01-05T02:07:32.201Z,43.63
2019-01-05T02:10:19.581Z,39.27
2019-01-05T02:13:00.367Z,45.13
2019-01-05T02:15:51.559Z,42.10
2019-01-05T02:18:47.093Z,40.63
2019-01-05T02:21:22.254Z,35.20
2019-01-05T02:24:21.040Z,35.83
2019-01-05T02:27:24.404Z,40.70
2019-01-05T02:30:25.869Z,38.63
2019-01-05T02:33:30.477Z,38.23
2019-01-05T02:36:36.189Z,34.83
2019-01-05T02:39:40.710Z,34.13
2019-01-05T02:42:46.961Z,34.77
2019-01-05T02:45:39.442Z,29.10
2019-01-05T02:48:57.950Z,28.77
2019-01-05T02:51:41.342Z,32.77
2019-01-05T02:54:32.385Z,26.40
2019-01-05T02:57:30.878Z,30.60
2019-01-05T03:00:47.470Z,25.67
2019-01-05T03:03:40.563Z,26.33
2019-01-05T03:06:45.371Z,25.03
2019-01-05T03:09:43.931Z,21.40
2019-01-05T03:12:30.247Z,22.87
2019-01-05T03:15:29.183Z,20.00
2019-01-05T03:18:20.127Z,20.43
2019-01-05T03:21:06.523Z,21.87
2019-01-05T03:24:02.025Z,16.70
2019-01-05T03:26:57.884Z,17.40
2019-01-05T03:30:12.997Z,18.63
2019-01-05T03:33:07.403Z,16.97
2019-01-05T03:36:03.424Z,17.70
2019-01-05T03:38:51.878Z,16.33
2019-01-05T03:41:32.811Z,17.17
2019-01-05T03:44:39.103Z,21.33
2019-01-05T03:47:33.246Z,16.97
2019-01-05T03:50:55.907Z,15.50
2019-01-05T03:53:36.251Z,17.43
2019-01-05T03:56:30.442Z,17.20
2019-01-05T03:59:30.229Z,19.73
2019-01-05T04:02:37.538Z,15.33
2019-01-05T04:05:46.107Z,15.17
2019-01-05T04:08:46.361Z,15.20
2019-01-05T04:11:40.414Z,13.47
2019-01-05T04:15:07.253Z,14.60
2019-01-05T04:18:22.039Z,11.80
2019-01-05T04:21:28.214Z,11.37
2019-01-05T04:24:31.505Z,11.30
2019-01-05T04:27:52.916Z,11.63
2019-01-05T04:30:55.765Z,14.50
2019-01-05T04:33:45.354Z,12.40
2019-01-05T04:36:45.749Z,11.67
2019-01-05T04:39:38.349Z,13.90
2019-01-05T04:42:28.088Z,10.30
2019-01-05T04:45:31.099Z,13.53
2019-01-05T04:48:41.306Z,14.07
2019-01-05T04:51:34.937Z,11.83
2019-01-05T04:54:47.226Z,13.00
2019-01-05T04:57:42.845Z,12.07
2019-01-05T05:00:44.281Z,11.87
2019-01-05T05:03:53.071Z,11.23
2019-01-05T05:06:50.329Z,9.87
2019-01-05T05:10:11.026Z,9.40
2019-01-05T05:13:14.145Z,10.50
2019-01-05T05:16:06.690Z,9.80
2019-01-05T05:19:06.810Z,9.50
2019-01-05T05:21:50.333Z,11.23
2019-01-05T05:24:57.835Z,10.20
2019-01-05T05:27:53.652Z,10.43
2019-01-05T05:30:55.558Z,10.03
2019-01-05T05:34:01.828Z,9.60
2019-01-05T05:36:59.402Z,8.60
2019-01-05T05:40:05.826Z,9.77
2019-01-05T05:43:13.478Z,9.83
2019-01-05T05:46:19.834Z,9.37
2019-01-05T05:49:09.629Z,10.23
2019-01-05T05:52:05.312Z,9.03
2019-01-05T05:55:08.075Z,9.10
2019-01-05T05:57:45.692Z,7.83
2019-01-05T06:01:11.137Z,8.00
2019-01-05T06:04:14.018Z,8.30
2019-01-05T06:07:27.178Z,8.83
2019-01-05T06:10:13.946Z,8.07
2019-01-05T06:13:18.870Z,8.23
2019-01-05T06:16:02.398Z,8.10
2019-01-05T06:19:26.602Z,9.33
2019-01-05T06:22:23.516Z,9.37
2019-01-05T06:25:31.381Z,8.93
2019-01-05T06:28:46.889Z,9.30
2019-01-05T06:31:48.423Z,8.17
2019-01-05T06:34:40.971Z,6.97
2019-01-05T06:37:18.727Z,8.40
2019-01-05T06:40:42.781Z,8.17
2019-01-05T06:43:45.681Z,9.07
2019-01-05T06:47:02.486Z,9.37
2019-01-05T06:49:53.575Z,9.03
2019-01-05T06:53:11.701Z,8.87
2019-01-05T06:56:11.328Z,8.70
2019-01-05T06:59:21.622Z,10.13
2019-01-05T07:02:38.930Z,9.00
2019-01-05T07:05:39.310Z,8.93
2019-01-05T07:08:39.406Z,9.37
2019-01-05T07:11:29.330Z,10.23
2019-01-05T07:14:34.046Z,8.87
2019-01-05T07:17:14.490Z,7.97
2019-01-05T07:20:11.569Z,8.53
2019-01-05T07:23:30.854Z,7.27
2019-01-05T07:26:21.937Z,8.83
2019-01-05T07:29:30.050Z,9.37
2019-01-05T07:32:33.378Z,9.93
2019-01-05T07:35:47.218Z,9.27
2019-01-05T07:39:08.404Z,10.30
2019-01-05T07:41:58.182Z,9.10
2019-01-05T07:45:07.330Z,10.33
2019-01-05T07:48:33.441Z,7.30
2019-01-05T07:51:52.800Z,9.33
2019-01-05T07:55:00.385Z,7.20
2019-01-05T07:58:08.292Z,7.87
2019-01-05T08:01:20.528Z,8.40
2019-01-05T08:04:27.866Z,8.47
2019-01-05T08:07:39.848Z,11.80
2019-01-05T08:10:33.966Z,13.40
2019-01-05T08:13:17.354Z,13.77
2019-01-05T08:16:24.835Z,12.57
2019-01-05T08:19:02.592Z,11.57
2019-01-05T08:22:01.246Z,8.63
2019-01-05T08:25:03.998Z,8.67
2019-01-05T08:28:18.508Z,8.10
2019-01-05T08:31:08.189Z,7.30
2019-01-05T08:34:15.806Z,8.17
2019-01-05T08:37:29.126Z,5.83
2019-01-05T08:40:09.546Z,5.90
2019-01-05T08:43:23.435Z,5.93
2019-01-05T08:46:40.334Z,5.93
2019-01-05T08:49:39.002Z,5.87
2019-01-05T08:52:28.747Z,5.17
2019-01-05T08:55:22.574Z,6.07
2019-01-05T08:58:22.482Z,5.47
2019-01-05T09:01:20.884Z,7.10
2019-01-05T09:04:31.706Z,6.40
2019-01-05T09:07:12.999Z,7.95
2019-01-05T09:10:31.397Z,6.07
2019-01-05T09:13:36.043Z,8.17
2019-01-05T09:16:51.189Z,6.17
2019-01-05T09:20:13.710Z,5.90
2019-01-05T09:23:12.170Z,8.07
2019-01-05T09:26:07.683Z,8.00
2019-01-05T09:29:04.785Z,7.17
2019-01-05T09:32:01.434Z,9.57
2019-01-05T09:34:47.934Z,12.20
2019-01-05T09:37:40.574Z,11.03
2019-01-05T09:40:23.929Z,9.63
2019-01-05T09:43:10.319Z,12.37
2019-01-05T09:46:08.698Z,10.47
2019-01-05T09:49:25.478Z,10.50
2019-01-05T09:52:27.126Z,8.83
2019-01-05T09:55:34.914Z,10.37
2019-01-05T09:58:31.966Z,10.97
2019-01-05T10:01:48.354Z,9.13
2019-01-05T10:04:57.758Z,7.13
2019-01-05T10:07:38.421Z,7.23
2019-01-05T10:10:31.186Z,8.27
2019-01-05T10:13:14.805Z,7.73
2019-01-05T10:16:30.030Z,9.53
2019-01-05T10:19:40.706Z,7.00
2019-01-05T10:22:49.955Z,7.57
2019-01-05T10:25:42.467Z,7.07
2019-01-05T10:28:38.057Z,10.93
2019-01-05T10:32:02.326Z,10.47
2019-01-05T10:34:49.530Z,9.46
2019-01-05T10:37:45.305Z,6.50
2019-01-05T10:41:03.438Z,9.97
2019-01-05T10:43:38.366Z,8.90
2019-01-05T10:47:00.743Z,11.57
2019-01-05T10:49:44.326Z,8.60
2019-01-05T10:53:02.227Z,11.83
2019-01-05T10:55:59.187Z,8.93
2019-01-05T10:59:23.197Z,8.73
2019-01-05T11:02:20.535Z,9.60
2019-01-05T11:05:29.560Z,9.00
2019-01-05T11:08:41.664Z,8.57
2019-01-05T11:11:44.134Z,9.30
2019-01-05T11:14:50.338Z,8.27
2019-01-05T11:17:39.667Z,7.33
2019-01-05T11:20:47.565Z,10.10
2019-01-05T11:23:28.526Z,9.23
2019-01-05T11:26:28.481Z,7.95
2019-01-05T11:29:11.858Z,6.07
2019-01-05T11:32:09.103Z,6.37
2019-01-05T11:35:09.050Z,8.23
2019-01-05T11:38:14.645Z,6.47
2019-01-05T11:41:10.274Z,9.77
2019-01-05T11:44:06.023Z,8.20
2019-01-05T11:47:13.847Z,7.28
2019-01-05T11:49:57.420Z,9.17
2019-01-05T11:52:54.807Z,6.58
2019-01-05T11:56:19.150Z,8.07
2019-01-05T11:59:19.407Z,7.93
2019-01-05T12:02:00.790Z,7.12
2019-01-05T12:04:53.454Z,6.27
2019-01-05T12:07:44.590Z,6.80
2019-01-05T12:10:51.217Z,7.97
2019-01-05T12:13:38.559Z,13.53
2019-01-05T12:16:40.999Z,9.63
2019-01-05T12:19:39.134Z,9.43
2019-01-05T12:22:59.883Z,9.35
2019-01-05T12:25:47.045Z,7.55
2019-01-05T12:28:49.206Z,8.53
2019-01-05T12:31:58.438Z,10.32
2019-01-05T12:34:45.038Z,10.28
2019-01-05T12:37:44.398Z,7.15
2019-01-05T12:41:07.405Z,8.90
2019-01-05T12:44:10.617Z,5.70
2019-01-05T12:47:01.122Z,6.58
2019-01-05T12:50:09.150Z,7.17
2019-01-05T12:53:16.751Z,9.57
2019-01-05T12:56:23.800Z,8.18
2019-01-05T12:59:47.601Z,9.13
2019-01-05T13:02:38.251Z,8.47
2019-01-05T13:05:32.685Z,8.83
2019-01-05T13:08:31.299Z,6.63
2019-01-05T13:11:31.553Z,8.97
2019-01-05T13:14:25.027Z,6.40
2019-01-05T13:17:20.740Z,11.23
2019-01-05T13:19:58.454Z,10.97
2019-01-05T13:23:06.521Z,6.77
2019-01-05T13:26:04.254Z,9.63
2019-01-05T13:29:14.903Z,5.53
2019-01-05T13:32:24.138Z,9.00
2019-01-05T13:35:17.235Z,5.87
2019-01-05T13:38:23.346Z,7.73
2019-01-05T13:41:07.618Z,7.42
2019-01-05T13:44:29.965Z,6.95
2019-01-05T13:47:50.916Z,8.37
2019-01-05T13:50:52.747Z,7.22
2019-01-05T13:53:46.863Z,6.27
2019-01-05T13:56:28.199Z,6.37
2019-01-05T13:59:16.324Z,9.23
2019-01-05T14:02:03.901Z,8.07
2019-01-05T14:04:41.962Z,7.22
2019-01-05T14:07:19.497Z,5.87
2019-01-05T14:09:51.326Z,7.50
2019-01-05T14:12:26.461Z,7.53
2019-01-05T14:15:02.020Z,7.55
2019-01-05T14:17:37.033Z,7.43
2019-01-05T14:20:18.005Z,7.50
2019-01-05T14:23:06.102Z,6.20
2019-01-05T14:25:38.190Z,5.93
2019-01-05T14:28:26.418Z,7.17
2019-01-05T14:31:14.243Z,7.87
2019-01-05T14:33:46.072Z,7.73
2019-01-05T14:36:17.921Z,7.53
2019-01-05T14:38:58.902Z,10.67
2019-01-05T14:41:39.681Z,7.97
2019-01-05T14:44:11.534Z,5.30
2019-01-05T14:46:43.934Z,6.60
2019-01-05T14:49:21.543Z,6.30
2019-01-05T14:52:08.689Z,6.87
2019-01-05T14:54:43.249Z,6.90
2019-01-05T14:57:24.367Z,5.60
2019-01-05T14:59:59.218Z,6.13
2019-01-05T15:02:46.400Z,5.43
2019-01-05T15:05:18.246Z,6.93
2019-01-05T15:07:52.571Z,8.97
2019-01-05T15:10:36.142Z,6.47
2019-01-05T15:13:24.174Z,6.63
2019-01-05T15:16:04.754Z,5.00
2019-01-05T15:18:51.642Z,10.93
2019-01-05T15:21:23.490Z,7.33
2019-01-05T15:24:07.086Z,8.70
2019-01-05T15:26:47.974Z,4.43
2019-01-05T15:29:32.110Z,7.10
2019-01-05T15:32:09.671Z,7.83
2019-01-05T15:34:53.582Z,5.63
2019-01-05T15:37:28.175Z,8.17
2019-01-05T15:40:15.820Z,7.10
2019-01-05T15:42:56.650Z,9.77
2019-01-05T15:45:31.209Z,9.27
2019-01-05T15:48:14.908Z,9.60
2019-01-05T15:50:55.690Z,5.67
2019-01-05T15:53:33.463Z,11.07
2019-01-05T15:56:21.755Z,8.43
2019-01-05T15:59:09.771Z,12.50
2019-01-05T16:01:56.703Z,7.03
2019-01-05T16:04:40.397Z,9.53
2019-01-05T16:07:30.070Z,9.80
2019-01-05T16:10:04.603Z,11.20
2019-01-05T16:12:54.597Z,7.30
2019-01-05T16:15:38.305Z,14.93
2019-01-05T16:18:22.270Z,9.83
2019-01-05T16:21:10.719Z,11.83
2019-01-05T16:23:58.806Z,10.30
2019-01-05T16:26:30.633Z,10.27
2019-01-05T16:29:11.171Z,6.83
2019-01-05T16:31:48.675Z,9.33
2019-01-05T16:34:20.526Z,7.83
2019-01-05T16:36:55.278Z,9.83
2019-01-05T16:39:43.246Z,8.60
2019-01-05T16:42:21.092Z,8.33
2019-01-05T16:44:55.962Z,14.47
2019-01-05T16:47:30.369Z,13.03
2019-01-05T16:50:02.210Z,8.00
2019-01-05T16:52:43.334Z,9.70
2019-01-05T16:55:27.269Z,11.30
2019-01-05T16:58:14.174Z,13.17
2019-01-05T17:00:46.261Z,9.93
2019-01-05T17:03:34.355Z,9.33
2019-01-05T17:06:08.879Z,9.97
2019-01-05T17:08:56.705Z,8.30
2019-01-05T17:11:44.535Z,8.53
2019-01-05T17:14:32.717Z,9.90
2019-01-05T17:17:19.222Z,12.07
2019-01-05T17:19:56.827Z,10.10
2019-01-05T17:22:45.160Z,10.40
2019-01-05T17:25:26.266Z,12.73
2019-01-05T17:28:14.544Z,8.43
2019-01-05T17:30:53.897Z,10.83
2019-01-05T17:33:37.877Z,10.30
2019-01-05T17:36:24.825Z,9.93
2019-01-05T17:39:05.494Z,8.03
2019-01-05T17:41:37.764Z,8.80
2019-01-05T17:44:21.813Z,10.37
2019-01-05T17:46:53.638Z,14.70
2019-01-05T17:49:37.372Z,9.53
2019-01-05T17:52:25.422Z,11.07
2019-01-05T17:54:57.285Z,10.23
2019-01-05T17:57:44.184Z,11.57
2019-01-05T18:00:32.263Z,8.80
2019-01-05T18:03:04.171Z,9.50
2019-01-05T18:05:36.245Z,9.80
2019-01-05T18:08:23.143Z,13.70
2019-01-05T18:10:55.006Z,12.60
2019-01-05T18:13:27.085Z,11.47
2019-01-05T18:16:07.934Z,12.70
2019-01-05T18:18:39.782Z,9.07
2019-01-05T18:21:27.938Z,10.83
2019-01-05T18:24:00.030Z,12.17
2019-01-05T18:26:40.560Z,9.83
2019-01-05T18:29:24.255Z,9.23
2019-01-05T18:31:56.143Z,9.30
2019-01-05T18:34:40.019Z,9.50
2019-01-05T18:37:27.943Z,8.20
2019-01-05T18:40:02.717Z,9.13
2019-01-05T18:42:40.344Z,11.13
2019-01-05T18:45:15.033Z,12.40
2019-01-05T18:47:47.176Z,10.30
2019-01-05T18:50:21.667Z,11.10
2019-01-05T18:52:56.410Z,10.73
2019-01-05T18:55:34.218Z,10.07
2019-01-05T18:58:09.268Z,12.33
2019-01-05T19:00:41.169Z,13.43
2019-01-05T19:03:18.719Z,11.17
2019-01-05T19:05:53.535Z,12.33
2019-01-05T19:08:37.363Z,13.97
2019-01-05T19:11:27.286Z,11.67
2019-01-05T19:14:15.047Z,16.40
2019-01-05T19:16:49.727Z,12.80
2019-01-05T19:19:27.293Z,16.13
2019-01-05T19:22:17.325Z,14.40
2019-01-05T19:24:52.021Z,13.23
2019-01-05T19:27:26.391Z,14.87
2019-01-05T19:30:06.847Z,16.17
2019-01-05T19:32:47.598Z,14.20
2019-01-05T19:35:28.036Z,13.57
2019-01-05T19:38:16.271Z,17.47
2019-01-05T19:41:02.963Z,16.33
2019-01-05T19:43:53.430Z,15.47
2019-01-05T19:46:33.866Z,12.27
2019-01-05T19:49:11.682Z,14.93
2019-01-05T19:51:52.251Z,13.93
2019-01-05T19:54:24.350Z,14.97
2019-01-05T19:57:13.092Z,13.40
2019-01-05T19:59:45.034Z,11.97
2019-01-05T20:02:22.593Z,14.37
2019-01-05T20:05:03.741Z,16.63
2019-01-05T20:07:38.426Z,13.03
2019-01-05T20:10:13.880Z,17.47
2019-01-05T20:13:03.798Z,11.50
2019-01-05T20:15:51.630Z,14.87
2019-01-05T20:18:38.444Z,13.87
2019-01-05T20:21:15.747Z,13.37
2019-01-05T20:24:05.111Z,15.70
2019-01-05T20:26:45.730Z,11.07
2019-01-05T20:29:23.610Z,11.73
2019-01-05T20:32:11.991Z,13.30
2019-01-05T20:34:46.714Z,11.47
2019-01-05T20:37:21.746Z,11.37
2019-01-05T20:39:59.254Z,10.37
2019-01-05T20:42:33.990Z,10.13
2019-01-05T20:45:06.320Z,11.20
2019-01-05T20:47:56.030Z,13.37
2019-01-05T20:50:27.861Z,11.90
2019-01-05T20:52:59.718Z,10.70
2019-01-05T20:55:40.570Z,11.73
2019-01-05T20:58:28.732Z,11.10
2019-01-05T21:01:06.506Z,10.97
2019-01-05T21:03:38.583Z,10.83
2019-01-05T21:06:13.373Z,8.90
2019-01-05T21:08:57.641Z,10.07
2019-01-05T21:11:38.596Z,11.80
2019-01-05T21:14:35.123Z,10.97
2019-01-05T21:17:21.516Z,11.23
2019-01-05T21:19:56.121Z,13.57
2019-01-05T21:22:43.141Z,14.50
2019-01-05T21:25:15.379Z,13.70
2019-01-05T21:27:52.420Z,13.57
2019-01-05T21:30:40.529Z,14.33
2019-01-05T21:33:12.441Z,13.13
2019-01-05T21:35:53.428Z,14.40
2019-01-05T21:38:31.028Z,12.80
2019-01-05T21:41:12.229Z,14.17
2019-01-05T21:44:00.350Z,14.87
2019-01-05T21:46:41.053Z,12.93
2019-01-05T21:49:24.643Z,15.33
2019-01-05T21:52:02.758Z,14.90
2019-01-05T21:54:40.175Z,15.87
2019-01-05T21:57:18.202Z,17.13
2019-01-05T21:59:53.130Z,12.60
2019-01-05T22:02:28.226Z,11.40
2019-01-05T22:05:00.579Z,14.83
2019-01-05T22:07:32.819Z,13.23
2019-01-05T22:10:08.991Z,14.67
2019-01-05T22:12:48.154Z,15.17
2019-01-05T22:15:25.539Z,12.50
2019-01-05T22:17:57.386Z,11.60
2019-01-05T22:20:43.974Z,11.93
2019-01-05T22:23:33.516Z,13.73
2019-01-05T22:26:21.865Z,10.53
2019-01-05T22:29:11.502Z,10.70
2019-01-05T22:31:49.205Z,9.90
2019-01-05T22:34:36.757Z,13.03
2019-01-05T22:37:08.803Z,10.83
2019-01-05T22:39:52.552Z,11.47
2019-01-05T22:42:26.899Z,12.40
2019-01-05T22:45:04.562Z,15.03
2019-01-05T22:47:52.522Z,12.57
2019-01-05T22:50:40.772Z,14.27
2019-01-05T22:53:15.582Z,9.97
2019-01-05T22:55:50.346Z,12.53
2019-01-05T22:58:27.909Z,13.77
2019-01-05T23:00:59.779Z,14.40
2019-01-05T23:03:31.632Z,15.63
2019-01-05T23:06:19.515Z,12.33
2019-01-05T23:09:07.326Z,12.00
2019-01-05T23:11:42.090Z,14.57
2019-01-05T23:14:29.898Z,12.27
2019-01-05T23:17:11.331Z,16.40
2019-01-05T23:19:45.900Z,13.13
2019-01-05T23:22:33.787Z,18.97
2019-01-05T23:25:09.161Z,13.27
2019-01-05T23:27:46.893Z,11.57
2019-01-05T23:30:37.994Z,14.40
2019-01-05T23:33:12.602Z,15.50
2019-01-05T23:35:44.465Z,11.53
2019-01-05T23:38:19.498Z,10.53
2019-01-05T23:41:00.119Z,12.07
2019-01-05T23:43:50.033Z,12.87
2019-01-05T23:46:30.873Z,12.63
2019-01-05T23:49:08.733Z,9.63
2019-01-05T23:51:56.412Z,13.30
2019-01-05T23:54:28.261Z,10.83
2019-01-05T23:57:08.852Z,14.03
2019-01-05T23:59:43.649Z,12.33
